Time;durP1;ratioP1;P1;durP2;ratioP2;P2;SDS_P1;SDS_P2;PMS_P1;PMS_P2;Temp;Humidity;BMP_temperature;BMP_pressure;BME280_temperature;BME280_humidity;BME280_pressure;Samples;Min_cycle;Max_cycle;Signal;HPM_P1;HPM_P2
2022/01/23 00:02:07;;;;;;;2.40;2.13;;;;;;;-5.23;92.19;61468.97;6142411;23;20171;-74
2022/01/23 00:04:34;;;;;;;1.77;1.67;;;;;;;-5.25;91.44;61472.41;6140690;23;20515;-73
2022/01/23 00:07:04;;;;;;;2.17;1.98;;;;;;;-5.21;91.22;61471.53;6139131;23;20203;-73
2022/01/23 00:09:31;;;;;;;3.10;2.72;;;;;;;-5.16;91.45;61483.56;6137988;23;20199;-74
2022/01/23 00:11:59;;;;;;;4.80;2.35;;;;;;;-5.13;91.23;61481.66;6135561;23;20222;-73
2022/01/23 00:17:20;;;;;;;1.63;1.52;;;;;;;-5.06;91.30;61489.31;6137165;23;20295;-74
2022/01/23 00:19:48;;;;;;;1.85;1.75;;;;;;;-5.03;91.62;61494.84;6134797;23;20213;-73
2022/01/23 00:22:15;;;;;;;2.08;1.98;;;;;;;-5.02;91.72;61495.34;6136222;23;20174;-73
2022/01/23 00:30:24;;;;;;;5.47;2.28;;;;;;;-4.96;92.58;61501.47;6135155;23;20558;-74
2022/01/23 00:32:51;;;;;;;2.25;2.05;;;;;;;-4.90;92.36;61505.13;6136106;23;20405;-73
2022/01/23 00:35:18;;;;;;;2.40;2.17;;;;;;;-4.90;92.59;61502.63;6135257;23;20191;-74
2022/01/23 00:37:45;;;;;;;2.35;2.10;;;;;;;-4.98;92.96;61496.94;6135074;23;20179;-73
2022/01/23 00:40:13;;;;;;;2.42;2.10;;;;;;;-4.94;93.12;61503.50;6135524;23;20534;-72
2022/01/23 00:42:40;;;;;;;4.20;2.17;;;;;;;-4.91;93.41;61507.06;6135888;23;20179;-73
2022/01/23 00:45:25;;;;;;;1.95;1.77;;;;;;;-4.88;93.17;61509.63;6135046;23;20203;-72
2022/01/23 00:47:57;;;;;;;3.33;1.67;;;;;;;-4.90;93.34;61500.16;6135557;23;20480;-74
2022/01/23 00:50:24;;;;;;;2.15;1.95;;;;;;;-4.95;93.49;61498.03;6136163;23;20511;-74
2022/01/23 00:52:51;;;;;;;3.45;2.03;;;;;;;-4.93;94.31;61505.03;6135884;23;20207;-74
2022/01/23 00:55:18;;;;;;;1.88;1.65;;;;;;;-5.01;94.84;61496.88;6135156;23;20198;-74
2022/01/23 00:57:45;;;;;;;2.28;2.10;;;;;;;-4.94;95.53;61494.09;6136284;23;20167;-74
2022/01/23 01:00:13;;;;;;;1.95;1.60;;;;;;;-4.97;95.99;61497.97;6136325;23;20195;-73
2022/01/23 01:02:39;;;;;;;1.55;1.45;;;;;;;-5.00;96.48;61502.34;6135552;23;20168;-73
2022/01/23 01:05:09;;;;;;;2.40;2.17;;;;;;;-5.07;97.98;61493.25;6135281;23;20262;-72
2022/01/23 01:07:36;;;;;;;2.45;2.22;;;;;;;-5.06;98.81;61491.78;6136739;23;20246;-73
2022/01/23 01:10:08;;;;;;;1.95;1.80;;;;;;;-5.11;99.78;61483.69;6135578;23;20187;-73
2022/01/23 01:12:39;;;;;;;2.70;1.83;;;;;;;-5.11;100.00;61476.75;6135755;23;20183;-73
2022/01/23 01:15:35;;;;;;;2.40;1.60;;;;;;;-5.11;100.00;61483.69;6137295;23;20397;-72
2022/01/23 01:31:48;;;;;;;17.15;6.07;;;;;;;-5.11;100.00;61476.25;6136823;23;20206;-74
2022/01/23 01:34:20;;;;;;;3.67;2.20;;;;;;;-5.08;100.00;61484.78;6136907;23;20516;-73
2022/01/23 01:36:49;;;;;;;2.55;2.35;;;;;;;-5.08;100.00;61484.78;6137321;23;20172;-73
2022/01/23 01:39:19;;;;;;;3.17;2.88;;;;;;;-5.09;100.00;61483.25;6137471;23;20202;-73
2022/01/23 01:41:46;;;;;;;2.35;2.17;;;;;;;-5.11;100.00;61478.72;6136873;23;20175;-73
2022/01/23 01:44:15;;;;;;;5.78;3.10;;;;;;;-5.16;100.00;61476.13;6137223;23;20242;-73
2022/01/23 01:46:43;;;;;;;2.90;2.70;;;;;;;-5.24;100.00;61468.47;6137453;23;20221;-73
2022/01/23 01:49:09;;;;;;;2.47;2.28;;;;;;;-5.23;100.00;61471.97;6137373;23;20511;-73
2022/01/23 01:51:38;;;;;;;3.45;2.65;;;;;;;-5.17;100.00;61475.59;6136632;23;20361;-73
2022/01/23 01:54:12;;;;;;;2.45;2.33;;;;;;;-5.11;100.00;61484.19;6137133;23;20527;-73
2022/01/23 01:56:48;;;;;;;2.00;1.67;;;;;;;-5.18;100.00;61477.06;6137573;23;20174;-74
2022/01/23 01:59:33;;;;;;;3.72;2.60;;;;;;;-5.11;100.00;61481.22;6137424;23;20202;-73
2022/01/23 02:10:15;;;;;;;2.78;2.50;;;;;;;-5.27;100.00;61467.91;6136674;23;20203;-73
2022/01/23 02:13:03;;;;;;;4.65;3.55;;;;;;;-5.25;100.00;61471.91;6136967;23;20172;-74
2022/01/23 02:24:12;;;;;;;3.33;2.88;;;;;;;-5.22;100.00;61470.00;6135016;23;20238;-73
2022/01/23 02:51:52;;;;;;;4.75;3.20;;;;;;;-5.64;100.00;61432.66;6137422;23;20175;-73
2022/01/23 02:54:29;;;;;;;2.25;2.08;;;;;;;-5.66;100.00;61425.66;6136868;23;20266;-73
2022/01/23 02:57:02;;;;;;;3.55;2.58;;;;;;;-5.68;100.00;61425.59;6140095;23;20163;-72
2022/01/23 02:59:32;;;;;;;4.60;2.80;;;;;;;-5.71;100.00;61420.56;6140795;23;20230;-73
2022/01/23 03:02:09;;;;;;;3.53;2.60;;;;;;;-5.75;100.00;61418.47;6139808;23;20390;-73
2022/01/23 03:04:39;;;;;;;5.32;3.40;;;;;;;-5.72;99.99;61424.00;6136601;23;20191;-73
2022/01/23 03:07:29;;;;;;;2.53;2.33;;;;;;;-5.71;99.78;61423.03;6136962;23;20195;-72
2022/01/23 03:10:02;;;;;;;3.55;2.65;;;;;;;-5.71;99.30;61423.03;6135806;23;20198;-73
2022/01/23 03:15:20;;;;;;;4.00;2.90;;;;;;;-5.80;99.23;61411.41;6077067;23;20428;-75
2022/01/23 03:26:22;;;;;;;3.30;3.03;;;;;;;-5.86;99.92;61405.31;6135248;23;20202;-73
2022/01/23 03:29:17;;;;;;;2.88;2.45;;;;;;;-5.81;99.55;61407.38;6136760;23;20170;-73
2022/01/23 03:31:58;;;;;;;3.78;2.83;;;;;;;-5.83;99.43;61405.88;6135268;23;20222;-73
2022/01/23 03:34:27;;;;;;;6.13;3.70;;;;;;;-5.84;99.23;61409.31;6135767;23;20196;-74
2022/01/23 03:36:56;;;;;;;2.65;2.40;;;;;;;-5.87;98.96;61408.72;6136128;23;20480;-73
2022/01/23 03:39:23;;;;;;;2.88;2.67;;;;;;;-5.81;98.46;61412.34;6135617;23;20196;-73
2022/01/23 03:41:52;;;;;;;2.63;2.33;;;;;;;-5.76;97.91;61417.94;6136041;23;20171;-74
2022/01/23 03:44:19;;;;;;;2.95;2.45;;;;;;;-5.73;97.44;61422.97;6135630;23;20202;-74
2022/01/23 03:47:01;;;;;;;4.95;2.85;;;;;;;-5.72;97.08;61429.47;6135906;23;20242;-73
2022/01/23 03:49:31;;;;;;;4.43;3.45;;;;;;;-5.68;96.55;61428.59;6135531;23;20195;-73
2022/01/23 03:52:00;;;;;;;3.28;2.92;;;;;;;-5.64;96.13;61430.19;6135670;23;20275;-72
2022/01/23 03:54:27;;;;;;;3.45;2.42;;;;;;;-5.55;95.93;61441.81;6136172;23;20191;-73
2022/01/23 03:56:57;;;;;;;4.35;3.60;;;;;;;-5.54;95.49;61440.38;6135481;23;20234;-74
2022/01/23 03:59:24;;;;;;;7.90;3.58;;;;;;;-5.47;95.04;61447.50;6135651;23;20237;-73
2022/01/23 04:01:51;;;;;;;2.65;2.45;;;;;;;-5.48;94.80;61443.50;6135953;23;20178;-73
2022/01/23 04:04:36;;;;;;;4.07;2.05;;;;;;;-5.36;94.45;61456.22;6136632;23;20195;-74
2022/01/23 04:07:05;;;;;;;3.33;2.95;;;;;;;-5.40;93.98;61454.63;6135885;23;20250;-74
2022/01/23 04:09:32;;;;;;;4.65;2.67;;;;;;;-5.44;93.64;61450.56;6137950;23;20199;-74
2022/01/23 04:12:01;;;;;;;2.85;2.50;;;;;;;-5.39;93.01;61460.09;6141269;23;20179;-73
2022/01/23 04:14:30;;;;;;;2.60;2.35;;;;;;;-5.29;93.12;61465.34;6142052;23;20195;-73
2022/01/23 04:17:32;;;;;;;4.13;2.20;;;;;;;-5.36;92.57;61456.22;6141354;23;20360;-73
2022/01/23 04:20:03;;;;;;;2.35;1.67;;;;;;;-5.29;92.47;61458.41;6145144;23;20210;-73
2022/01/23 04:33:45;;;;;;;2.83;2.38;;;;;;;-5.22;90.60;61475.47;6135228;23;20158;-73
2022/01/23 05:01:15;;;;;;;2.72;2.50;;;;;;;-5.41;89.66;61456.09;6138420;23;20234;-74
2022/01/23 05:04:06;;;;;;;2.95;2.33;;;;;;;-5.45;89.85;61452.00;6137761;23;20159;-74
2022/01/23 05:06:42;;;;;;;5.68;2.42;;;;;;;-5.52;89.69;61447.34;6137942;23;20210;-74
2022/01/23 05:09:10;;;;;;;2.53;2.22;;;;;;;-5.59;89.52;61437.25;6137912;23;20359;-74
2022/01/23 05:11:41;;;;;;;4.28;2.20;;;;;;;-5.62;89.85;61427.25;6137800;23;20176;-74
2022/01/23 05:14:08;;;;;;;4.60;2.67;;;;;;;-5.71;90.01;61420.06;6137371;23;20163;-73
2022/01/23 05:16:36;;;;;;;2.63;2.42;;;;;;;-5.65;90.08;61431.13;6136578;23;20179;-73
2022/01/23 05:19:05;;;;;;;4.72;2.85;;;;;;;-5.67;90.05;61427.13;6136842;23;20234;-75
2022/01/23 05:24:19;;;;;;;2.95;2.05;;;;;;;-5.68;89.91;61420.63;6137076;23;20254;-75
2022/01/23 05:26:47;;;;;;;2.53;2.33;;;;;;;-5.69;89.84;61424.59;6135446;23;20227;-73
2022/01/23 05:29:15;;;;;;;2.70;2.45;;;;;;;-5.67;89.62;61432.06;6137472;23;20558;-74
2022/01/23 05:31:45;;;;;;;2.78;2.67;;;;;;;-5.63;89.34;61428.72;6136844;23;20499;-74
2022/01/23 05:34:11;;;;;;;2.58;2.38;;;;;;;-5.63;89.54;61433.69;6137562;23;20211;-74
2022/01/23 05:36:38;;;;;;;3.05;2.80;;;;;;;-5.62;89.38;61432.22;6136744;23;20238;-74
2022/01/23 05:39:05;;;;;;;2.30;2.15;;;;;;;-5.70;88.82;61421.59;6137454;23;20215;-74
2022/01/23 05:41:33;;;;;;;3.08;2.28;;;;;;;-5.57;88.52;61434.34;6137420;23;20359;-74
2022/01/23 05:44:00;;;;;;;2.55;2.28;;;;;;;-5.61;88.27;61432.72;6136961;23;20199;-74
2022/01/23 05:46:27;;;;;;;2.30;2.10;;;;;;;-5.65;88.50;61431.13;6136822;23;20190;-74
2022/01/23 05:48:55;;;;;;;2.50;2.08;;;;;;;-5.73;88.59;61421.03;6138311;23;20484;-74
2022/01/23 05:51:22;;;;;;;4.05;2.10;;;;;;;-5.75;88.49;61418.47;6137342;23;20191;-74
2022/01/23 05:53:50;;;;;;;2.65;2.45;;;;;;;-5.74;89.03;61421.94;6139923;23;20194;-73
2022/01/23 05:56:17;;;;;;;2.90;2.53;;;;;;;-5.77;88.88;61409.00;6140797;23;20480;-72
2022/01/23 05:58:45;;;;;;;2.90;2.70;;;;;;;-5.83;88.88;61410.84;6138621;23;20215;-74
2022/01/23 06:01:12;;;;;;;4.72;3.25;;;;;;;-5.83;88.81;61410.84;6137231;23;20191;-74
2022/01/23 06:03:38;;;;;;;7.32;2.90;;;;;;;-5.82;89.17;61414.31;6136323;23;20239;-74
2022/01/23 06:06:07;;;;;;;4.25;2.97;;;;;;;-5.78;89.03;61418.38;6136816;23;20238;-74
2022/01/23 06:08:33;;;;;;;2.60;2.40;;;;;;;-5.75;88.85;61408.56;6136599;23;20200;-74
2022/01/23 06:11:00;;;;;;;2.35;2.15;;;;;;;-5.81;89.11;61412.34;6137010;23;20198;-74
2022/01/23 06:13:29;;;;;;;6.85;3.53;;;;;;;-5.76;88.83;61414.97;6136897;23;20175;-73
2022/01/23 06:15:56;;;;;;;3.05;1.83;;;;;;;-5.79;89.33;61417.38;6135693;23;20231;-74
2022/01/23 06:18:23;;;;;;;3.05;2.60;;;;;;;-5.81;89.17;61412.34;6137791;23;20548;-73
2022/01/23 06:20:50;;;;;;;3.22;2.65;;;;;;;-5.81;89.32;61405.41;6136733;23;20230;-75
2022/01/23 06:23:18;;;;;;;3.75;3.28;;;;;;;-5.77;89.52;61416.94;6136163;23;20183;-75
2022/01/23 06:25:48;;;;;;;4.47;2.45;;;;;;;-5.75;89.50;61420.94;6135200;23;20199;-75
2022/01/23 06:28:31;;;;;;;3.90;3.22;;;;;;;-5.75;89.19;61421.47;6136699;23;20202;-74
2022/01/23 06:30:57;;;;;;;3.17;2.78;;;;;;;-5.67;89.03;61429.09;6135907;23;20240;-75
2022/01/23 06:33:24;;;;;;;6.63;3.05;;;;;;;-5.69;88.86;61422.59;6135305;23;20171;-74
2022/01/23 06:35:51;;;;;;;2.97;2.72;;;;;;;-5.59;88.95;61437.75;6136582;23;20196;-76
2022/01/23 06:38:19;;;;;;;4.03;2.90;;;;;;;-5.59;89.06;61432.28;6137269;23;20280;-75
2022/01/23 06:40:46;;;;;;;5.65;3.60;;;;;;;-5.50;89.18;61441.44;6135335;23;20537;-75
2022/01/23 06:43:13;;;;;;;1.83;1.70;;;;;;;-5.51;88.98;61450.88;6136776;23;20175;-74
2022/01/23 06:45:40;;;;;;;5.28;3.50;;;;;;;-5.53;89.70;61438.91;6135302;23;20192;-74
2022/01/23 06:48:07;;;;;;;4.43;3.28;;;;;;;-5.46;90.00;61450.50;6135789;23;20266;-75
2022/01/23 06:50:34;;;;;;;4.40;3.03;;;;;;;-5.44;89.69;61453.06;6135676;23;20187;-74
2022/01/23 06:53:01;;;;;;;7.75;3.30;;;;;;;-5.43;89.27;61453.53;6137165;23;20222;-75
2022/01/23 06:55:29;;;;;;;3.92;2.72;;;;;;;-5.41;88.87;61456.09;6135782;23;20191;-74
2022/01/23 06:57:56;;;;;;;3.47;2.97;;;;;;;-5.32;88.58;61465.28;6136069;23;20221;-74
2022/01/23 07:00:23;;;;;;;5.85;3.17;;;;;;;-5.30;88.06;61461.84;6139213;23;20203;-73
2022/01/23 07:02:50;;;;;;;4.35;3.33;;;;;;;-5.20;87.64;61474.50;6141207;23;20183;-73
2022/01/23 07:05:17;;;;;;;3.53;2.75;;;;;;;-5.00;87.06;61499.88;6142946;23;20200;-74
2022/01/23 07:07:43;;;;;;;4.63;3.10;;;;;;;-4.71;85.74;61519.50;6144379;23;20226;-73
2022/01/23 07:10:11;;;;;;;4.75;3.75;;;;;;;-4.35;83.62;61558.22;6142868;23;20201;-73
2022/01/23 07:12:39;;;;;;;5.10;2.95;;;;;;;-4.22;81.57;61572.00;6140632;23;20179;-73
2022/01/23 07:15:07;;;;;;;3.75;3.45;;;;;;;-4.38;81.53;61557.63;6141387;23;20203;-73
2022/01/23 07:17:40;;;;;;;6.07;3.92;;;;;;;-4.26;81.32;61562.44;6139049;23;20184;-75
2022/01/23 07:20:08;;;;;;;3.05;2.85;;;;;;;-4.38;81.24;61557.63;6136888;23;20387;-74
2022/01/23 07:22:35;;;;;;;4.22;3.65;;;;;;;-4.40;81.68;61556.09;6136396;23;20172;-75
2022/01/23 07:25:03;;;;;;;4.72;4.32;;;;;;;-4.41;81.68;61557.56;6135433;23;20203;-74
2022/01/23 07:27:34;;;;;;;5.93;4.50;;;;;;;-4.14;81.53;61577.16;6136151;23;20383;-75
2022/01/23 07:30:05;;;;;;;4.20;3.47;;;;;;;-3.89;79.16;61608.16;6136925;23;20560;-74
2022/01/23 07:32:32;;;;;;;5.90;4.38;;;;;;;-3.85;78.17;61606.75;6135448;23;20374;-74
2022/01/23 07:34:58;;;;;;;3.88;3.55;;;;;;;-4.09;78.20;61590.22;6136424;23;20195;-74
2022/01/23 07:37:25;;;;;;;4.18;3.75;;;;;;;-4.09;78.15;61589.72;6136615;23;20171;-74
2022/01/23 07:39:52;;;;;;;3.72;3.35;;;;;;;-4.01;78.62;61595.91;6136889;23;20199;-74
2022/01/23 07:42:20;;;;;;;5.00;4.50;;;;;;;-4.31;79.24;61562.28;6136783;23;20175;-73
2022/01/23 07:44:47;;;;;;;3.75;3.35;;;;;;;-4.34;78.54;61557.25;6136541;23;20398;-74
2022/01/23 07:47:15;;;;;;;3.38;3.08;;;;;;;-4.28;78.27;61570.31;6135914;23;20195;-74
2022/01/23 07:49:42;;;;;;;4.00;3.58;;;;;;;-4.21;77.73;61580.44;6136024;23;20222;-74
2022/01/23 07:52:09;;;;;;;6.40;4.38;;;;;;;-4.22;77.58;61566.50;6136012;23;20175;-74
2022/01/23 07:54:36;;;;;;;9.18;3.63;;;;;;;-4.16;77.29;61575.63;6135824;23;20191;-74
2022/01/23 07:57:03;;;;;;;10.43;7.10;;;;;;;-4.15;76.96;61584.09;6135134;23;20359;-75
2022/01/23 07:59:30;;;;;;;6.15;3.80;;;;;;;-3.99;76.67;61597.44;6134256;23;20534;-74
2022/01/23 08:01:56;;;;;;;7.00;4.90;;;;;;;-4.17;76.44;61582.06;6132479;23;20211;-74
2022/01/23 08:04:24;;;;;;;5.75;3.83;;;;;;;-3.99;75.85;61592.47;6133296;23;20200;-73
2022/01/23 08:07:06;;;;;;;3.25;2.67;;;;;;;-4.06;75.37;61595.25;6135408;23;20181;-75
2022/01/23 08:09:33;;;;;;;3.67;3.05;;;;;;;-4.04;75.66;61589.84;6136264;23;20567;-75
2022/01/23 08:12:01;;;;;;;4.30;3.17;;;;;;;-4.05;74.59;61594.31;6135775;23;20198;-74
2022/01/23 08:14:27;;;;;;;4.88;4.38;;;;;;;-3.97;73.79;61597.00;6135396;23;20195;-74
2022/01/23 08:16:55;;;;;;;4.85;3.85;;;;;;;-3.95;73.58;61599.03;6136115;23;20179;-74
2022/01/23 08:19:22;;;;;;;4.38;3.58;;;;;;;-3.93;73.41;61601.06;6134806;23;20191;-75
2022/01/23 08:21:50;;;;;;;6.22;3.97;;;;;;;-3.98;74.74;61598.97;6135249;23;20168;-75
2022/01/23 08:24:17;;;;;;;3.83;3.42;;;;;;;-4.00;74.77;61596.91;6133975;23;20195;-74
2022/01/23 08:26:44;;;;;;;3.75;3.42;;;;;;;-3.97;74.73;61602.47;6133477;23;20239;-74
2022/01/23 08:29:10;;;;;;;4.30;3.45;;;;;;;-3.85;74.80;61609.25;6135055;23;20583;-74
2022/01/23 08:31:37;;;;;;;5.00;2.97;;;;;;;-3.76;74.02;61616.44;6135066;23;20197;-74
2022/01/23 08:34:04;;;;;;;5.90;4.10;;;;;;;-3.69;72.64;61623.06;6133306;23;20213;-74
2022/01/23 08:36:33;;;;;;;4.35;3.40;;;;;;;-3.55;72.52;61634.88;6135909;23;20175;-74
2022/01/23 08:39:01;;;;;;;3.92;3.30;;;;;;;-3.45;70.65;61652.06;6135120;23;20175;-74
2022/01/23 08:44:13;;;;;;;6.72;4.40;;;;;;;-3.25;70.73;61667.50;6137476;23;20390;-75
2022/01/23 08:46:39;;;;;;;4.82;3.35;;;;;;;-3.23;70.60;61670.06;6136059;23;20259;-74
2022/01/23 08:49:06;;;;;;;4.72;3.90;;;;;;;-3.29;69.02;61660.91;6135009;23;20523;-75
2022/01/23 08:51:33;;;;;;;3.90;3.60;;;;;;;-3.31;69.34;61666.84;6138906;23;20171;-74
2022/01/23 08:54:02;;;;;;;5.72;4.18;;;;;;;-3.15;68.32;61678.22;6143228;23;20211;-75
2022/01/23 08:56:30;;;;;;;5.00;3.90;;;;;;;-3.23;67.45;61675.03;6142364;23;20234;-74
2022/01/23 08:58:56;;;;;;;5.60;4.07;;;;;;;-3.27;68.06;61668.47;6137969;23;20226;-74
2022/01/23 09:01:23;;;;;;;3.75;2.95;;;;;;;-3.42;67.46;61653.16;6137401;23;20175;-74
2022/01/23 09:03:50;;;;;;;5.30;4.18;;;;;;;-3.45;70.12;61645.09;6135123;23;20476;-74
2022/01/23 09:06:18;;;;;;;4.43;2.88;;;;;;;-3.23;68.77;61674.53;6135069;23;20171;-74
2022/01/23 09:08:45;;;;;;;10.68;3.35;;;;;;;-3.53;67.16;61644.91;6134805;23;20262;-74
2022/01/23 09:11:25;;;;;;;6.65;3.15;;;;;;;-3.52;67.23;61642.94;6134352;23;20504;-75
2022/01/23 09:14:06;;;;;;;4.22;2.80;;;;;;;-3.40;66.70;61655.19;6135313;23;20418;-75
2022/01/23 09:16:33;;;;;;;7.68;3.53;;;;;;;-3.33;67.42;61659.34;6135945;23;20168;-76
2022/01/23 09:19:01;;;;;;;4.70;3.53;;;;;;;-3.44;68.88;61650.59;6135848;23;20190;-76
2022/01/23 09:21:28;;;;;;;5.90;3.22;;;;;;;-3.25;66.87;61677.47;6136111;23;20171;-75
2022/01/23 09:23:55;;;;;;;5.05;4.47;;;;;;;-3.10;67.21;61685.31;6134698;23;20187;-75
2022/01/23 09:26:24;;;;;;;3.97;3.50;;;;;;;-3.06;65.88;61692.41;6135345;23;20246;-74
2022/01/23 09:28:55;;;;;;;3.92;3.60;;;;;;;-3.08;65.31;61687.88;6141531;23;20535;-75
2022/01/23 09:31:30;;;;;;;7.60;4.65;;;;;;;-3.06;65.76;61694.38;6137631;23;20468;-75
2022/01/23 09:33:57;;;;;;;3.63;3.33;;;;;;;-3.33;67.70;61669.78;6139436;23;20210;-75
2022/01/23 09:36:24;;;;;;;3.35;3.05;;;;;;;-3.25;66.71;61672.47;6138035;23;20222;-76
2022/01/23 09:38:52;;;;;;;6.45;3.97;;;;;;;-3.03;66.54;61689.97;6137233;23;20230;-76
2022/01/23 09:41:25;;;;;;;3.10;2.80;;;;;;;-3.13;64.71;61687.75;6137941;23;20515;-74
2022/01/23 09:43:52;;;;;;;2.13;1.98;;;;;;;-3.16;64.79;61676.69;6137579;23;20164;-75
2022/01/23 09:46:20;;;;;;;3.30;3.10;;;;;;;-3.12;64.93;61688.25;6137420;23;20168;-74
2022/01/23 09:48:48;;;;;;;3.95;3.38;;;;;;;-3.15;63.68;61680.19;6135034;23;20238;-75
2022/01/23 09:51:16;;;;;;;3.70;2.25;;;;;;;-3.23;64.00;61674.53;6137434;23;20183;-76
2022/01/23 09:53:44;;;;;;;4.20;3.17;;;;;;;-3.06;65.79;61689.91;6139154;23;20174;-75
2022/01/23 09:56:13;;;;;;;5.05;3.67;;;;;;;-3.40;66.85;61662.13;6142819;23;20195;-75
2022/01/23 09:58:41;;;;;;;3.72;3.33;;;;;;;-3.46;66.84;61648.53;6145422;23;20195;-76
2022/01/23 10:01:10;;;;;;;4.68;2.78;;;;;;;-3.39;66.71;61651.22;6144361;23;20191;-74
2022/01/23 10:03:37;;;;;;;4.43;2.97;;;;;;;-3.45;66.49;61660.03;6142885;23;20472;-75
2022/01/23 10:06:08;;;;;;;3.17;2.88;;;;;;;-3.46;68.40;61646.06;6143410;23;20191;-75
2022/01/23 10:08:36;;;;;;;3.35;2.53;;;;;;;-3.32;66.11;61660.88;6140196;23;20200;-76
2022/01/23 10:11:09;;;;;;;5.78;2.97;;;;;;;-3.23;64.65;61677.53;6139350;23;20507;-74
2022/01/23 10:13:36;;;;;;;4.50;3.63;;;;;;;-3.35;63.05;61657.28;6138202;23;20223;-74
2022/01/23 10:16:05;;;;;;;5.55;3.63;;;;;;;-3.16;64.56;61684.16;6137452;23;20192;-75
2022/01/23 10:18:32;;;;;;;4.47;2.83;;;;;;;-3.21;64.94;61679.56;6136797;23;20197;-75
2022/01/23 10:20:59;;;;;;;5.22;2.90;;;;;;;-3.32;64.87;61657.88;6137386;23;20459;-75
2022/01/23 10:23:27;;;;;;;6.18;3.30;;;;;;;-3.21;65.29;61671.59;6136825;23;20190;-75
2022/01/23 10:25:54;;;;;;;4.32;3.05;;;;;;;-3.23;65.17;61675.03;6136710;23;20456;-75
2022/01/23 10:28:28;;;;;;;3.30;3.10;;;;;;;-3.32;64.58;61668.34;6137093;23;20535;-75
2022/01/23 10:30:57;;;;;;;3.60;3.30;;;;;;;-3.10;64.68;61682.81;6136626;23;20192;-74
2022/01/23 10:33:27;;;;;;;4.22;3.72;;;;;;;-2.97;64.26;61699.09;6137517;23;20176;-75
2022/01/23 10:35:56;;;;;;;4.22;2.85;;;;;;;-3.02;63.39;61695.97;6137357;23;20199;-75
2022/01/23 10:38:24;;;;;;;3.03;2.47;;;;;;;-2.96;62.98;61705.09;6136983;23;20531;-75
2022/01/23 10:41:05;;;;;;;6.93;3.80;;;;;;;-2.88;62.65;61702.81;6135601;23;20207;-74
2022/01/23 10:49:16;;;;;;;4.72;2.95;;;;;;;-2.77;61.38;61721.53;6048566;23;20213;-75
2022/01/23 10:51:50;;;;;;;5.07;2.63;;;;;;;-2.68;60.67;61733.22;6047964;23;20180;-74
2022/01/23 10:54:20;;;;;;;4.30;2.67;;;;;;;-2.79;59.54;61717.50;6090062;23;20229;-75
2022/01/23 10:57:00;;;;;;;6.30;3.25;;;;;;;-3.04;60.27;61689.47;6137068;23;20467;-75
2022/01/23 10:59:39;;;;;;;4.07;2.78;;;;;;;-3.02;61.04;61698.47;6136681;23;20187;-75
2022/01/23 11:02:08;;;;;;;5.43;2.40;;;;;;;-3.03;60.82;61697.44;6135686;23;20527;-75
2022/01/23 11:04:51;;;;;;;5.03;2.58;;;;;;;-2.94;59.72;61704.66;6136641;23;20257;-75
2022/01/23 11:07:19;;;;;;;4.10;2.60;;;;;;;-2.91;60.37;61702.22;6135705;23;20178;-75
2022/01/23 11:09:46;;;;;;;5.18;3.05;;;;;;;-2.82;59.47;61719.41;6136037;23;20218;-75
2022/01/23 11:12:30;;;;;;;4.32;3.15;;;;;;;-2.85;59.64;61713.34;6136783;23;20171;-76
2022/01/23 11:17:50;;;;;;;2.30;2.20;;;;;;;-2.90;58.36;61706.25;6137567;23;20208;-75
2022/01/23 11:20:32;;;;;;;5.47;3.08;;;;;;;-2.93;57.57;61700.69;6136571;23;20233;-77
2022/01/23 11:23:13;;;;;;;6.78;2.42;;;;;;;-2.96;57.83;61707.09;6136967;23;20222;-75
2022/01/23 11:25:41;;;;;;;3.45;2.35;;;;;;;-3.02;58.22;61695.97;6136654;23;20415;-76
2022/01/23 11:28:08;;;;;;;2.50;2.30;;;;;;;-3.05;57.81;61692.91;6136485;23;20262;-75
2022/01/23 11:30:41;;;;;;;6.30;2.42;;;;;;;-3.05;58.64;61690.94;6136028;23;20196;-75
2022/01/23 11:33:10;;;;;;;4.25;2.38;;;;;;;-2.89;58.05;61707.28;6136833;23;20160;-75
2022/01/23 11:35:39;;;;;;;5.32;2.42;;;;;;;-3.02;58.09;61693.50;6136413;23;20192;-75
2022/01/23 11:38:12;;;;;;;2.03;1.83;;;;;;;-3.04;57.47;61688.97;6136040;23;20179;-74
2022/01/23 11:50:37;;;;;;;3.13;2.83;;;;;;;-3.11;57.89;61684.81;6136710;23;20436;-76
2022/01/23 11:54:39;;;;;;;4.50;3.75;;;;;;;-3.09;58.85;61688.84;6141594;23;20218;-75
2022/01/23 11:57:26;;;;;;;2.83;2.60;;;;;;;-3.07;58.74;61693.38;6137021;23;20547;-75
2022/01/23 11:59:58;;;;;;;3.03;2.00;;;;;;;-3.20;58.44;61675.63;6138207;23;20191;-75
2022/01/23 12:02:39;;;;;;;6.43;3.33;;;;;;;-3.02;59.22;61688.50;6139306;23;20175;-76
2022/01/23 12:05:28;;;;;;;5.15;2.97;;;;;;;-3.04;59.14;61693.94;6140131;23;20191;-74
2022/01/23 12:08:31;;;;;;;2.58;2.13;;;;;;;-3.21;58.73;61671.59;6139509;23;20510;-74
2022/01/23 12:17:22;;;;;;;6.20;2.72;;;;;;;-3.18;58.45;61682.13;6139561;23;20375;-76
2022/01/23 12:19:52;;;;;;;5.78;2.65;;;;;;;-3.11;59.14;61687.31;6139873;23;20191;-75
2022/01/23 12:22:35;;;;;;;3.33;2.67;;;;;;;-3.17;59.15;61678.16;6138504;23;20190;-75
2022/01/23 12:25:18;;;;;;;2.97;2.13;;;;;;;-3.34;58.50;61661.31;6135859;23;20570;-76
2022/01/23 12:27:45;;;;;;;4.78;3.45;;;;;;;-3.30;58.45;61665.41;6136876;23;20175;-75
2022/01/23 12:30:31;;;;;;;3.58;3.25;;;;;;;-3.32;59.16;61665.31;6142341;23;20207;-75
2022/01/23 12:33:17;;;;;;;2.95;2.33;;;;;;;-3.40;59.22;61652.72;6143280;23;20187;-75
2022/01/23 12:35:50;;;;;;;3.05;2.38;;;;;;;-3.45;59.82;61654.56;6142683;23;20191;-75
2022/01/23 12:38:18;;;;;;;3.72;3.22;;;;;;;-3.59;62.68;61635.78;6144483;23;20163;-75
2022/01/23 12:40:48;;;;;;;5.78;2.92;;;;;;;-3.42;61.30;61650.16;6141382;23;20246;-76
2022/01/23 12:43:17;;;;;;;3.20;2.55;;;;;;;-3.50;61.48;61641.97;6139312;23;20228;-76
2022/01/23 12:45:52;;;;;;;3.00;2.78;;;;;;;-3.52;61.83;61645.44;6138800;23;20198;-75
2022/01/23 12:48:38;;;;;;;2.15;1.73;;;;;;;-3.40;62.10;61659.66;6136681;23;20226;-75
2022/01/23 12:51:07;;;;;;;8.27;3.22;;;;;;;-3.33;61.91;61669.78;6136017;23;20199;-75
2022/01/23 12:53:39;;;;;;;3.45;3.15;;;;;;;-3.29;61.90;61673.38;6140985;23;20175;-76
2022/01/23 12:56:09;;;;;;;3.58;3.25;;;;;;;-3.26;61.30;61671.47;6141172;23;20195;-76
2022/01/23 12:58:37;;;;;;;5.68;2.78;;;;;;;-3.26;61.28;61667.00;6144863;23;20167;-76
2022/01/23 13:01:08;;;;;;;3.35;2.40;;;;;;;-3.21;60.71;61674.59;6137450;23;20305;-76
2022/01/23 13:03:37;;;;;;;4.70;2.85;;;;;;;-3.39;60.37;61655.69;6137627;23;20167;-75
2022/01/23 13:06:07;;;;;;;4.43;2.60;;;;;;;-3.40;61.19;61655.19;6136465;23;20218;-76
2022/01/23 13:08:38;;;;;;;6.93;3.67;;;;;;;-3.49;61.60;61650.47;6137498;23;20469;-75
2022/01/23 13:11:44;;;;;;;3.38;2.80;;;;;;;-3.53;62.12;61647.41;6136817;23;20203;-75
2022/01/23 13:14:07;;;;;;;4.45;4.03;;;;;;;-3.54;62.39;61641.38;6138051;23;20183;-75
2022/01/23 13:16:39;;;;;;;4.25;3.15;;;;;;;-3.48;62.19;61653.97;6138179;23;20178;-75
2022/01/23 13:30:17;;;;;;;2.67;2.47;;;;;;;-3.55;62.30;61645.34;6137576;23;20601;-74
2022/01/23 13:32:46;;;;;;;4.15;3.00;;;;;;;-3.47;62.65;61653.03;6140042;23;20182;-75
2022/01/23 13:35:16;;;;;;;5.63;3.20;;;;;;;-3.55;62.45;61642.88;6141826;23;20443;-75
2022/01/23 13:37:45;;;;;;;3.08;2.33;;;;;;;-3.58;63.38;61634.84;6139719;23;20199;-75
2022/01/23 13:40:15;;;;;;;4.35;3.20;;;;;;;-3.50;63.69;61649.44;6140912;23;20211;-75
2022/01/23 13:47:53;;;;;;;7.80;2.55;;;;;;;-3.49;63.75;61645.47;6140968;23;20172;-75
2022/01/23 13:51:42;;;;;;;4.88;3.05;;;;;;;-3.50;64.69;61642.47;6077956;23;20180;-76
2022/01/23 13:57:34;;;;;;;3.13;2.83;;;;;;;-3.67;64.83;61633.09;6116375;23;20211;-75
2022/01/23 14:00:00;;;;;;;3.45;2.67;;;;;;;-3.64;66.63;61631.19;6137282;23;20194;-74
2022/01/23 14:02:31;;;;;;;4.43;2.13;;;;;;;-3.59;66.69;61640.75;6139638;23;20218;-74
2022/01/23 14:05:08;;;;;;;3.33;3.08;;;;;;;-3.70;65.48;61624.56;6139015;23;20207;-76
2022/01/23 14:07:36;;;;;;;5.97;3.20;;;;;;;-3.70;66.86;61627.03;6139258;23;20182;-75
2022/01/23 14:10:14;;;;;;;4.72;2.97;;;;;;;-3.69;67.55;61628.06;6137511;23;20211;-76
2022/01/23 14:12:41;;;;;;;4.32;2.97;;;;;;;-3.64;67.68;61633.16;6136991;23;20508;-76
2022/01/23 14:15:15;;;;;;;2.60;2.40;;;;;;;-3.78;67.43;61614.41;6136961;23;20230;-76
2022/01/23 14:17:43;;;;;;;6.35;2.80;;;;;;;-3.82;67.99;61612.81;6136655;23;20210;-75
2022/01/23 14:20:13;;;;;;;2.88;2.60;;;;;;;-3.83;67.28;61611.28;6139385;23;20195;-76
2022/01/23 14:22:42;;;;;;;4.10;3.17;;;;;;;-3.98;67.66;61598.97;6138467;23;20182;-75
2022/01/23 14:25:15;;;;;;;7.30;3.00;;;;;;;-3.84;69.22;61610.25;6136623;23;20465;-73
2022/01/23 14:27:44;;;;;;;3.80;3.35;;;;;;;-3.73;69.01;61622.00;6136449;23;20189;-74
2022/01/23 14:30:18;;;;;;;3.97;2.40;;;;;;;-3.77;68.16;61617.91;6136376;23;20512;-73
2022/01/23 14:32:52;;;;;;;3.80;3.05;;;;;;;-3.80;68.55;61616.84;6141435;23;20171;-74